Time;durP1;ratioP1;P1;durP2;ratioP2;P2;SDS_P1;SDS_P2;PMS_P1;PMS_P2;Temp;Humidity;BMP_temperature;BMP_pressure;BME280_temperature;BME280_humidity;BME280_pressure;Samples;Min_cycle;Max_cycle;Signal;HPM_P1;HPM_P2
2023/07/16 00:00:11;;;;;;;1.90;1.80;;;22.60;66.20;;;;;;5066685;28;20131;-88
2023/07/16 00:02:37;;;;;;;2.30;2.20;;;22.60;66.00;;;;;;5054958;28;20045;-88
2023/07/16 00:05:03;;;;;;;2.20;2.10;;;22.70;66.10;;;;;;5053862;28;20495;-85
2023/07/16 00:07:29;;;;;;;2.03;1.92;;;22.60;65.90;;;;;;5058405;28;20052;-87
2023/07/16 00:09:54;;;;;;;2.05;1.95;;;22.60;65.90;;;;;;5052154;28;20074;-88
2023/07/16 00:12:20;;;;;;;2.40;2.30;;;22.60;65.90;;;;;;5052025;28;20046;-88
2023/07/16 00:14:45;;;;;;;2.60;2.40;;;22.60;65.90;;;;;;5049865;28;20037;-87
2023/07/16 00:17:11;;;;;;;2.00;1.90;;;22.60;65.90;;;;;;5054779;28;20506;-87
2023/07/16 00:19:37;;;;;;;2.20;2.10;;;22.60;65.90;;;;;;5056164;28;20051;-87
2023/07/16 00:22:02;;;;;;;1.88;1.80;;;22.60;65.90;;;;;;5050800;28;20025;-87
2023/07/16 00:24:28;;;;;;;2.03;1.92;;;22.70;66.00;;;;;;5050322;28;20045;-88
2023/07/16 00:26:53;;;;;;;2.30;2.20;;;22.60;66.00;;;;;;5013901;28;20075;-87
2023/07/16 00:29:19;;;;;;;2.30;2.20;;;22.60;65.90;;;;;;5047075;28;20095;-88
2023/07/16 00:31:44;;;;;;;2.28;2.17;;;22.60;65.90;;;;;;5059049;28;20044;-87
2023/07/16 00:34:10;;;;;;;2.05;1.95;;;22.60;65.90;;;;;;5060022;28;20577;-87
2023/07/16 00:36:35;;;;;;;1.92;1.88;;;22.60;65.80;;;;;;5052538;28;20032;-88
2023/07/16 00:39:01;;;;;;;1.77;1.67;;;22.60;65.90;;;;;;5059075;28;20052;-88
2023/07/16 00:41:27;;;;;;;2.30;2.20;;;22.60;66.60;;;;;;5035094;28;20045;-88
2023/07/16 00:43:54;;;;;;;2.38;2.28;;;22.60;65.90;;;;;;5071042;28;20055;-87
2023/07/16 00:46:19;;;;;;;2.28;2.17;;;22.60;65.90;;;;;;5057314;28;20040;-88
2023/07/16 00:48:45;;;;;;;2.30;2.20;;;22.60;65.80;;;;;;5030905;28;20040;-88
2023/07/16 00:51:10;;;;;;;2.25;2.15;;;22.60;65.90;;;;;;5052983;28;20040;-85
2023/07/16 00:53:36;;;;;;;1.90;1.80;;;22.60;65.90;;;;;;5035513;28;20128;-87
2023/07/16 00:56:02;;;;;;;2.38;2.28;;;22.60;65.90;;;;;;5026693;28;20037;-88
2023/07/16 00:58:27;;;;;;;2.67;2.58;;;22.60;65.80;;;;;;5053079;28;20048;-87
2023/07/16 01:00:53;;;;;;;2.47;2.38;;;22.60;65.80;;;;;;5069826;28;20049;-87
2023/07/16 01:03:18;;;;;;;2.20;2.10;;;22.60;65.80;;;;;;5022746;28;20502;-87
2023/07/16 01:05:49;;;;;;;2.47;2.35;;;22.60;65.80;;;;;;5030563;28;20037;-87
2023/07/16 01:08:15;;;;;;;2.13;2.03;;;22.60;65.80;;;;;;5035993;28;20537;-88
2023/07/16 01:10:41;;;;;;;2.30;2.20;;;22.60;65.70;;;;;;5036709;28;20040;-88
2023/07/16 01:13:07;;;;;;;2.58;2.40;;;22.60;65.90;;;;;;5047457;28;20037;-80
2023/07/16 01:15:32;;;;;;;2.42;2.33;;;22.60;65.90;;;;;;5037746;28;20077;-89
2023/07/16 01:17:58;;;;;;;2.38;2.28;;;22.60;65.90;;;;;;5040023;28;20685;-88
2023/07/16 01:20:25;;;;;;;2.55;2.45;;;22.60;65.80;;;;;;5048137;28;20550;-87
2023/07/16 01:23:39;;;;;;;2.05;1.95;;;22.50;65.80;;;;;;5035807;28;20040;-87
2023/07/16 01:26:26;;;;;;;2.28;2.17;;;22.60;65.60;;;;;;4951934;28;20030;-88
2023/07/16 01:29:11;;;;;;;2.13;2.03;;;22.60;65.90;;;;;;4948791;28;20042;-88
2023/07/16 01:31:37;;;;;;;2.55;2.40;;;22.50;65.70;;;;;;4960535;28;20038;-87
2023/07/16 01:34:02;;;;;;;2.45;2.35;;;22.50;66.50;;;;;;4990101;28;20048;-88
2023/07/16 01:36:28;;;;;;;2.40;2.30;;;22.60;65.70;;;;;;4966501;28;20528;-88
2023/07/16 01:38:54;;;;;;;2.22;2.13;;;22.60;65.70;;;;;;4978933;28;20041;-89
2023/07/16 01:41:19;;;;;;;2.70;2.60;;;22.60;65.80;;;;;;4976198;28;20038;-87
2023/07/16 01:43:45;;;;;;;2.47;2.38;;;22.50;65.70;;;;;;4977514;28;20447;-88
2023/07/16 01:46:11;;;;;;;2.25;2.15;;;22.50;65.70;;;;;;4965596;28;20561;-87
2023/07/16 01:48:37;;;;;;;2.35;2.25;;;22.50;65.60;;;;;;4967795;28;20455;-87
2023/07/16 01:51:03;;;;;;;2.28;2.17;;;22.50;65.70;;;;;;4966222;28;20030;-87
2023/07/16 01:53:28;;;;;;;2.33;2.22;;;22.50;65.70;;;;;;4972442;28;20053;-88
2023/07/16 01:55:54;;;;;;;2.30;2.20;;;22.50;65.60;;;;;;4978480;28;20432;-88
2023/07/16 01:58:19;;;;;;;2.05;1.95;;;22.50;65.60;;;;;;4977994;28;20038;-88
2023/07/16 02:00:45;;;;;;;2.22;2.13;;;22.50;65.70;;;;;;4976300;28;20041;-88
2023/07/16 02:03:11;;;;;;;2.08;1.98;;;22.50;65.70;;;;;;5031333;28;20037;-87
2023/07/16 02:05:37;;;;;;;2.13;2.03;;;22.50;65.60;;;;;;5053354;28;20040;-88
2023/07/16 02:08:02;;;;;;;2.38;2.28;;;22.50;66.40;;;;;;5033862;28;20044;-88
2023/07/16 02:10:28;;;;;;;2.15;2.03;;;22.50;65.80;;;;;;5041449;28;20043;-88
2023/07/16 02:12:53;;;;;;;2.20;2.10;;;22.50;65.70;;;;;;5034892;28;20053;-88
2023/07/16 02:15:19;;;;;;;2.42;2.30;;;22.50;65.60;;;;;;5033597;28;20530;-88
2023/07/16 02:17:45;;;;;;;2.20;2.10;;;22.50;65.50;;;;;;5047047;28;20049;-88
2023/07/16 02:20:10;;;;;;;2.20;2.10;;;22.50;65.70;;;;;;5046447;28;20066;-87
2023/07/16 02:22:36;;;;;;;2.50;2.40;;;22.50;65.60;;;;;;5038990;28;20059;-88
2023/07/16 02:25:02;;;;;;;2.08;1.98;;;22.50;65.50;;;;;;5049786;28;20064;-88
2023/07/16 02:27:28;;;;;;;2.40;2.30;;;22.50;65.60;;;;;;5034594;28;20055;-87
2023/07/16 02:29:53;;;;;;;2.05;1.85;;;22.50;65.60;;;;;;5067237;28;20503;-88
2023/07/16 02:32:19;;;;;;;2.15;2.05;;;22.50;66.40;;;;;;5052883;28;20055;-88
2023/07/16 02:34:44;;;;;;;2.63;2.53;;;22.50;65.60;;;;;;5048164;28;20439;-88
2023/07/16 02:37:10;;;;;;;1.95;1.85;;;22.50;65.70;;;;;;5026151;28;20032;-88
2023/07/16 02:39:35;;;;;;;2.05;1.95;;;22.50;65.70;;;;;;5051198;28;20037;-88
2023/07/16 02:42:01;;;;;;;2.20;2.10;;;22.50;65.60;;;;;;5049645;28;20037;-88
2023/07/16 02:44:26;;;;;;;2.15;2.05;;;22.50;65.60;;;;;;5049950;28;20142;-88
2023/07/16 02:46:52;;;;;;;2.53;2.33;;;22.50;65.60;;;;;;5053058;28;20037;-87
2023/07/16 02:49:17;;;;;;;2.65;2.55;;;22.50;65.70;;;;;;5030262;28;20037;-88
2023/07/16 02:51:43;;;;;;;2.72;2.63;;;22.50;65.70;;;;;;5051827;28;20525;-88
2023/07/16 02:54:09;;;;;;;2.40;2.30;;;22.50;65.60;;;;;;5051320;28;20044;-88
2023/07/16 02:56:34;;;;;;;2.70;2.60;;;22.50;65.60;;;;;;5054953;28;20045;-87
2023/07/16 02:59:00;;;;;;;2.42;2.22;;;22.50;65.70;;;;;;5051853;28;20049;-88
2023/07/16 03:01:25;;;;;;;2.85;2.65;;;22.50;65.70;;;;;;5070024;28;20039;-88
2023/07/16 03:03:51;;;;;;;2.45;2.35;;;22.50;65.60;;;;;;5030638;28;20040;-87
2023/07/16 03:06:16;;;;;;;2.30;2.20;;;22.50;65.60;;;;;;5032105;28;20044;-87
2023/07/16 03:08:42;;;;;;;2.58;2.47;;;22.40;65.70;;;;;;5046654;28;20057;-88
2023/07/16 03:11:07;;;;;;;2.40;2.30;;;22.40;65.70;;;;;;5034260;28;20410;-87
2023/07/16 03:13:33;;;;;;;2.25;2.15;;;22.40;65.70;;;;;;5049095;28;20059;-87
2023/07/16 03:15:58;;;;;;;2.53;2.40;;;22.40;65.80;;;;;;5017815;28;20044;-89
2023/07/16 03:18:30;;;;;;;2.45;2.30;;;22.50;65.90;;;;;;5047052;28;20048;-88
2023/07/16 03:20:56;;;;;;;2.75;2.65;;;22.40;65.70;;;;;;5030023;28;20048;-88
2023/07/16 03:23:23;;;;;;;2.28;2.17;;;22.40;65.60;;;;;;5035481;28;20502;-87
2023/07/16 03:25:48;;;;;;;2.60;2.50;;;22.40;65.70;;;;;;5033824;28;20546;-88
2023/07/16 03:28:14;;;;;;;2.88;2.55;;;22.40;65.80;;;;;;5031473;28;20053;-88
2023/07/16 03:30:39;;;;;;;2.63;2.50;;;22.40;65.70;;;;;;5034795;28;20511;-88
2023/07/16 03:33:05;;;;;;;2.22;2.13;;;22.40;65.80;;;;;;5032486;28;20203;-87
2023/07/16 03:35:30;;;;;;;2.35;2.25;;;22.40;65.70;;;;;;5033364;28;20037;-88
2023/07/16 03:37:56;;;;;;;2.47;2.38;;;22.40;65.70;;;;;;5035150;28;20486;-88
2023/07/16 03:40:25;;;;;;;2.42;2.30;;;22.40;65.70;;;;;;5042843;28;20056;-88
2023/07/16 03:42:51;;;;;;;2.72;2.58;;;22.40;65.70;;;;;;5048381;28;20033;-88
2023/07/16 03:45:17;;;;;;;2.10;2.00;;;22.40;65.80;;;;;;5064429;28;20052;-87
2023/07/16 03:47:42;;;;;;;2.50;2.40;;;22.40;65.80;;;;;;5052276;28;20079;-88
2023/07/16 03:50:08;;;;;;;1.95;1.85;;;22.40;65.80;;;;;;5045372;28;20133;-88
2023/07/16 03:52:33;;;;;;;2.60;2.40;;;22.40;65.90;;;;;;5037503;28;20183;-87
2023/07/16 03:54:59;;;;;;;2.30;2.20;;;22.40;65.80;;;;;;5015368;28;20149;-88
2023/07/16 03:57:25;;;;;;;2.20;2.10;;;22.40;65.80;;;;;;5012882;28;20040;-87
2023/07/16 03:59:50;;;;;;;2.55;2.45;;;22.40;65.80;;;;;;5031041;28;20076;-88
2023/07/16 04:02:16;;;;;;;2.67;2.47;;;22.40;65.80;;;;;;5055256;28;20047;-81
2023/07/16 04:04:41;;;;;;;2.47;2.30;;;22.40;65.80;;;;;;5034876;28;20049;-87
2023/07/16 04:07:07;;;;;;;2.30;2.20;;;22.40;65.80;;;;;;5036182;28;20037;-88
2023/07/16 04:09:32;;;;;;;2.15;2.05;;;22.40;65.80;;;;;;5037215;28;20105;-87
2023/07/16 04:11:58;;;;;;;2.42;2.33;;;22.40;65.90;;;;;;5035447;28;20103;-87
2023/07/16 04:14:23;;;;;;;2.58;2.47;;;22.30;65.90;;;;;;5037190;28;20041;-87
2023/07/16 04:16:49;;;;;;;2.65;2.55;;;22.40;65.90;;;;;;5035708;28;20076;-87
2023/07/16 04:19:15;;;;;;;2.55;2.45;;;22.40;65.90;;;;;;5020350;28;20507;-87
2023/07/16 04:21:40;;;;;;;2.45;2.35;;;22.40;65.90;;;;;;5041472;28;20106;-87
2023/07/16 04:24:07;;;;;;;2.63;2.45;;;22.30;65.90;;;;;;5059699;28;20460;-88
2023/07/16 04:26:33;;;;;;;2.53;2.42;;;22.30;65.90;;;;;;5052482;28;20036;-88
2023/07/16 04:28:58;;;;;;;2.35;2.25;;;22.40;65.90;;;;;;5054974;28;20044;-88
2023/07/16 04:31:24;;;;;;;2.67;2.58;;;22.40;65.90;;;;;;5057015;28;20044;-87
2023/07/16 04:33:50;;;;;;;2.83;2.50;;;22.40;65.90;;;;;;5036542;28;20052;-88
2023/07/16 04:36:15;;;;;;;2.78;2.67;;;22.30;65.90;;;;;;5051253;28;20044;-87
2023/07/16 04:38:41;;;;;;;2.33;2.22;;;22.30;65.90;;;;;;5067634;28;20052;-88
2023/07/16 04:41:07;;;;;;;2.38;2.28;;;22.40;66.00;;;;;;5053042;28;20120;-88
2023/07/16 04:43:32;;;;;;;2.53;2.42;;;22.40;66.00;;;;;;5060944;28;20036;-87
2023/07/16 04:45:58;;;;;;;2.75;2.55;;;22.30;66.70;;;;;;5056923;28;20051;-87
2023/07/16 04:48:23;;;;;;;2.60;2.50;;;22.40;66.00;;;;;;5053145;28;20228;-87
2023/07/16 04:50:51;;;;;;;2.42;2.33;;;22.30;65.80;;;;;;5056343;28;20037;-87
2023/07/16 04:53:18;;;;;;;2.40;2.30;;;22.40;65.90;;;;;;5057383;28;20421;-87
2023/07/16 04:55:44;;;;;;;2.92;2.83;;;22.40;65.90;;;;;;5059069;28;20429;-87
2023/07/16 04:58:11;;;;;;;2.47;2.38;;;22.40;65.90;;;;;;5058197;28;20047;-87
2023/07/16 05:00:37;;;;;;;2.80;2.60;;;22.30;65.90;;;;;;5038409;28;20464;-87
2023/07/16 05:03:03;;;;;;;2.50;2.40;;;22.30;65.90;;;;;;5036475;28;20037;-87
2023/07/16 05:05:28;;;;;;;2.70;2.60;;;22.30;65.90;;;;;;5055958;28;20406;-87
2023/07/16 05:07:54;;;;;;;2.40;2.30;;;22.30;66.70;;;;;;5068562;28;20107;-87
2023/07/16 05:10:19;;;;;;;2.22;2.13;;;22.30;65.90;;;;;;5040704;28;20166;-87
2023/07/16 05:12:45;;;;;;;2.60;2.50;;;22.30;65.90;;;;;;5051123;28;20053;-87
2023/07/16 05:15:10;;;;;;;2.67;2.47;;;22.30;65.90;;;;;;5055829;28;20085;-87
2023/07/16 05:17:36;;;;;;;2.65;2.45;;;22.30;65.90;;;;;;5049979;28;20486;-87
2023/07/16 05:20:03;;;;;;;2.80;2.70;;;22.30;65.90;;;;;;5056153;28;20068;-87
2023/07/16 05:22:29;;;;;;;2.90;2.75;;;22.30;65.80;;;;;;5056966;28;20037;-86
2023/07/16 05:24:55;;;;;;;2.70;2.60;;;22.30;65.80;;;;;;5071134;28;20037;-87
2023/07/16 05:27:20;;;;;;;2.83;2.72;;;22.40;65.90;;;;;;5051533;28;20189;-86
2023/07/16 05:29:46;;;;;;;2.63;2.53;;;22.30;65.90;;;;;;5051717;28;20509;-87
2023/07/16 05:32:11;;;;;;;2.78;2.67;;;22.30;65.90;;;;;;5034130;28;20045;-86
2023/07/16 05:34:37;;;;;;;2.70;2.60;;;22.30;66.60;;;;;;5059317;28;20536;-86
2023/07/16 05:37:03;;;;;;;2.42;2.33;;;22.30;65.90;;;;;;5057763;28;20094;-87
2023/07/16 05:39:28;;;;;;;2.92;2.83;;;22.30;65.90;;;;;;5024747;28;20048;-85
2023/07/16 05:41:54;;;;;;;3.05;2.85;;;22.30;65.90;;;;;;5031360;28;20048;-86
2023/07/16 05:44:20;;;;;;;2.85;2.65;;;22.30;65.90;;;;;;5026753;28;20041;-86
2023/07/16 05:46:45;;;;;;;2.88;2.67;;;22.30;65.80;;;;;;5041950;28;20033;-86
2023/07/16 05:49:11;;;;;;;2.70;2.55;;;22.30;65.90;;;;;;5056850;28;20570;-86
2023/07/16 05:51:36;;;;;;;3.00;2.85;;;22.30;65.90;;;;;;5033394;28;20045;-86
2023/07/16 05:54:02;;;;;;;2.70;2.60;;;22.30;65.80;;;;;;5035226;28;20030;-86
2023/07/16 05:56:28;;;;;;;3.20;3.00;;;22.30;65.90;;;;;;5046012;28;20128;-85
2023/07/16 05:58:53;;;;;;;2.78;2.58;;;22.30;65.80;;;;;;5019047;28;20435;-86
2023/07/16 06:01:19;;;;;;;2.88;2.67;;;22.30;65.80;;;;;;5057596;28;20037;-86
2023/07/16 06:03:44;;;;;;;2.85;2.65;;;22.30;65.80;;;;;;5032596;28;20037;-86
2023/07/16 06:06:10;;;;;;;3.10;2.90;;;22.30;65.70;;;;;;5032907;28;20453;-87
2023/07/16 06:08:36;;;;;;;2.60;2.50;;;22.30;65.80;;;;;;5017440;28;20064;-87
2023/07/16 06:11:01;;;;;;;2.92;2.75;;;22.30;65.70;;;;;;5035036;28;20041;-86
2023/07/16 06:13:27;;;;;;;3.05;2.88;;;22.40;65.70;;;;;;5050051;28;20044;-86
2023/07/16 06:15:52;;;;;;;2.70;2.50;;;22.30;65.70;;;;;;5014383;28;20045;-86
2023/07/16 06:18:18;;;;;;;2.40;2.30;;;22.30;65.60;;;;;;5048261;28;20045;-86
2023/07/16 06:20:47;;;;;;;3.47;3.17;;;22.30;65.70;;;;;;5035188;28;20516;-86
2023/07/16 06:23:12;;;;;;;2.53;2.38;;;22.30;65.70;;;;;;5031571;28;20034;-87
2023/07/16 06:25:40;;;;;;;2.80;2.65;;;22.30;65.70;;;;;;5037905;28;20033;-86
2023/07/16 06:28:05;;;;;;;3.08;2.88;;;22.30;65.80;;;;;;5035658;28;20449;-87
2023/07/16 06:30:32;;;;;;;2.70;2.50;;;22.30;65.80;;;;;;5035653;28;20037;-86
2023/07/16 06:32:58;;;;;;;2.67;2.47;;;22.40;65.80;;;;;;5035667;28;20132;-86
2023/07/16 06:35:24;;;;;;;2.53;2.42;;;22.30;65.70;;;;;;5031370;28;20487;-86
2023/07/16 06:37:50;;;;;;;3.28;3.08;;;22.30;65.70;;;;;;5050014;28;20060;-86
2023/07/16 06:40:15;;;;;;;2.70;2.50;;;22.30;65.60;;;;;;5037542;28;20048;-86
2023/07/16 06:42:41;;;;;;;3.05;2.85;;;22.40;65.70;;;;;;5030842;28;20037;-86
2023/07/16 06:45:07;;;;;;;2.83;2.63;;;22.40;65.70;;;;;;5034502;28;20259;-86
2023/07/16 06:47:33;;;;;;;3.22;2.80;;;22.40;65.60;;;;;;5029450;28;20061;-86
2023/07/16 06:49:58;;;;;;;2.75;2.55;;;22.40;65.60;;;;;;5001707;28;20049;-86
2023/07/16 06:52:27;;;;;;;3.58;3.38;;;22.40;65.60;;;;;;5051341;28;20052;-86
2023/07/16 06:54:55;;;;;;;2.97;2.78;;;22.40;65.50;;;;;;5038627;28;20045;-87
2023/07/16 06:57:22;;;;;;;3.08;2.88;;;22.40;65.60;;;;;;5052333;28;20065;-86
2023/07/16 06:59:47;;;;;;;2.42;2.33;;;22.40;65.60;;;;;;5034053;28;20075;-86
2023/07/16 07:02:13;;;;;;;2.85;2.65;;;22.30;65.50;;;;;;5051087;28;20045;-87
2023/07/16 07:04:39;;;;;;;3.08;2.97;;;22.40;65.60;;;;;;5067852;28;20070;-86
2023/07/16 07:07:04;;;;;;;2.65;2.55;;;22.40;65.60;;;;;;5026245;28;20045;-86
2023/07/16 07:09:30;;;;;;;2.80;2.60;;;22.40;65.60;;;;;;5030786;28;20779;-86
2023/07/16 07:11:56;;;;;;;2.47;2.38;;;22.40;65.60;;;;;;5033114;28;20053;-86
2023/07/16 07:14:21;;;;;;;2.42;2.33;;;22.40;65.60;;;;;;5031999;28;20411;-86
2023/07/16 07:16:47;;;;;;;2.67;2.58;;;22.40;65.60;;;;;;5032743;28;20060;-86
2023/07/16 07:19:12;;;;;;;2.70;2.60;;;22.40;65.50;;;;;;5038150;28;20033;-86
2023/07/16 07:21:38;;;;;;;2.65;2.55;;;22.40;66.40;;;;;;5016684;28;20045;-86
2023/07/16 07:24:03;;;;;;;2.53;2.42;;;22.40;65.50;;;;;;5032690;28;20037;-86
2023/07/16 07:26:29;;;;;;;2.80;2.60;;;22.40;65.50;;;;;;5044863;28;20049;-86
2023/07/16 07:28:54;;;;;;;2.45;2.35;;;22.40;65.50;;;;;;5032783;28;20042;-86
2023/07/16 07:31:20;;;;;;;2.90;2.70;;;22.40;65.50;;;;;;5038596;28;20113;-86
2023/07/16 07:33:46;;;;;;;2.78;2.60;;;22.40;65.50;;;;;;5028770;28;20037;-86
2023/07/16 07:36:11;;;;;;;2.67;2.47;;;22.40;65.40;;;;;;5017162;28;20025;-86
2023/07/16 07:38:37;;;;;;;2.78;2.67;;;22.40;65.30;;;;;;5052033;28;20120;-86
2023/07/16 07:41:04;;;;;;;2.50;2.40;;;22.40;65.30;;;;;;5036891;28;20034;-86
2023/07/16 07:43:29;;;;;;;2.40;2.30;;;22.40;66.00;;;;;;5044818;28;20087;-85
2023/07/16 07:45:55;;;;;;;2.50;2.40;;;22.40;65.20;;;;;;5037979;28;20068;-87
2023/07/16 07:48:21;;;;;;;2.05;1.95;;;22.40;65.20;;;;;;5066327;28;20040;-87
2023/07/16 07:50:47;;;;;;;2.42;2.33;;;22.40;65.10;;;;;;5050515;28;20522;-87
2023/07/16 07:53:14;;;;;;;2.42;2.33;;;22.40;65.20;;;;;;5056414;28;20149;-86
2023/07/16 07:55:40;;;;;;;2.45;2.35;;;22.40;65.20;;;;;;5047988;28;20035;-86
2023/07/16 07:58:06;;;;;;;5.30;2.40;;;22.40;65.10;;;;;;5073068;28;20117;-86
2023/07/16 08:00:31;;;;;;;2.58;2.47;;;22.50;65.10;;;;;;5044511;28;20033;-86
2023/07/16 08:02:57;;;;;;;3.15;2.95;;;22.50;65.10;;;;;;5039349;28;20091;-87
2023/07/16 08:05:23;;;;;;;2.75;2.55;;;22.50;65.10;;;;;;5040564;28;20748;-87
2023/07/16 08:07:48;;;;;;;2.40;2.30;;;22.50;65.10;;;;;;5037836;28;20029;-87
2023/07/16 08:10:14;;;;;;;2.75;2.65;;;22.50;65.00;;;;;;5025496;28;20463;-87
2023/07/16 08:12:39;;;;;;;2.38;2.28;;;22.50;65.00;;;;;;5069900;28;20311;-86
2023/07/16 08:15:07;;;;;;;2.50;2.40;;;22.50;65.00;;;;;;5036662;28;20037;-87
2023/07/16 08:17:32;;;;;;;2.40;2.30;;;22.50;65.00;;;;;;5053861;28;20056;-86
2023/07/16 08:19:58;;;;;;;2.42;2.33;;;22.50;65.10;;;;;;5037904;28;20045;-86
2023/07/16 08:22:24;;;;;;;2.35;2.25;;;22.50;65.10;;;;;;5044641;28;20045;-86
2023/07/16 08:24:51;;;;;;;2.65;2.55;;;22.50;65.20;;;;;;5035310;28;20036;-87
2023/07/16 08:27:16;;;;;;;2.58;2.47;;;22.50;65.10;;;;;;5038156;28;20049;-87
2023/07/16 08:29:42;;;;;;;2.72;2.63;;;22.50;64.90;;;;;;5034650;28;20510;-87
2023/07/16 08:32:08;;;;;;;2.45;2.35;;;22.50;64.90;;;;;;5040388;28;20038;-87
2023/07/16 08:34:33;;;;;;;2.70;2.60;;;22.50;64.90;;;;;;5044511;28;20571;-87
2023/07/16 08:36:59;;;;;;;2.30;2.10;;;22.50;65.00;;;;;;5042568;28;20049;-86
2023/07/16 08:39:24;;;;;;;2.65;2.45;;;22.50;65.00;;;;;;5034505;28;20410;-86
2023/07/16 08:41:50;;;;;;;2.80;2.60;;;22.60;65.00;;;;;;5048152;28;20045;-86
2023/07/16 08:44:15;;;;;;;12.98;2.50;;;22.60;65.10;;;;;;5075454;28;20077;-86
2023/07/16 08:46:41;;;;;;;2.25;2.15;;;22.60;65.10;;;;;;5071567;28;20033;-86
2023/07/16 08:49:07;;;;;;;2.25;2.15;;;22.60;65.20;;;;;;5040347;28;20059;-86
2023/07/16 08:51:33;;;;;;;2.20;2.10;;;22.60;65.50;;;;;;5050622;28;20124;-86
2023/07/16 08:53:59;;;;;;;2.60;2.40;;;22.60;65.50;;;;;;5017225;28;20042;-87
2023/07/16 08:56:25;;;;;;;2.75;2.60;;;22.60;65.30;;;;;;5036609;28;20037;-87
2023/07/16 08:58:50;;;;;;;2.30;2.10;;;22.60;65.20;;;;;;5042955;28;20038;-86
2023/07/16 09:01:18;;;;;;;2.40;2.30;;;22.60;65.20;;;;;;5054307;28;20094;-86
2023/07/16 09:03:43;;;;;;;2.42;2.33;;;22.60;65.40;;;;;;5021641;28;20050;-87
2023/07/16 09:06:09;;;;;;;2.13;2.03;;;22.60;65.10;;;;;;5053578;28;20067;-87
2023/07/16 09:08:34;;;;;;;2.30;2.20;;;22.60;65.00;;;;;;5069944;28;20044;-86
2023/07/16 09:11:00;;;;;;;3.00;2.80;;;22.60;64.90;;;;;;5052294;28;20044;-87
2023/07/16 09:13:27;;;;;;;2.10;2.00;;;22.60;64.80;;;;;;5075742;28;20426;-87
2023/07/16 09:15:54;;;;;;;2.50;2.30;;;22.60;64.90;;;;;;5055535;28;20123;-86
2023/07/16 09:18:29;;;;;;;2.25;2.15;;;22.60;65.00;;;;;;5054468;28;20527;-87
2023/07/16 09:20:58;;;;;;;2.35;2.25;;;22.60;64.90;;;;;;5055413;28;20072;-87
2023/07/16 09:23:26;;;;;;;2.10;1.98;;;22.60;64.90;;;;;;5070829;28;20040;-87
2023/07/16 09:25:51;;;;;;;2.45;2.35;;;22.70;65.70;;;;;;5058375;28;20047;-87
2023/07/16 09:28:18;;;;;;;2.65;2.22;;;22.70;64.80;;;;;;5054041;28;20037;-87
2023/07/16 09:30:44;;;;;;;2.15;2.05;;;22.70;65.60;;;;;;5052251;28;20036;-87
2023/07/16 09:33:13;;;;;;;1.90;1.80;;;22.70;64.80;;;;;;5066349;28;20532;-86
2023/07/16 09:35:39;;;;;;;2.00;1.90;;;22.70;64.90;;;;;;5054290;28;20094;-86
2023/07/16 09:38:04;;;;;;;1.83;1.75;;;22.70;65.20;;;;;;5059120;28;20045;-86
2023/07/16 09:40:30;;;;;;;2.20;2.10;;;22.70;65.30;;;;;;5073088;28;20492;-87
2023/07/16 09:42:55;;;;;;;2.05;1.95;;;22.70;65.20;;;;;;5070497;28;20048;-86
2023/07/16 09:45:21;;;;;;;2.38;2.20;;;22.70;65.20;;;;;;5023319;28;20076;-87
2023/07/16 09:47:46;;;;;;;2.25;2.15;;;22.70;65.20;;;;;;5051376;28;20568;-86
2023/07/16 09:50:12;;;;;;;2.17;2.08;;;22.70;65.30;;;;;;5023919;28;20051;-86
2023/07/16 09:52:39;;;;;;;1.83;1.73;;;22.70;65.20;;;;;;5057692;28;20053;-87
2023/07/16 09:55:05;;;;;;;2.30;2.20;;;22.70;64.90;;;;;;5048334;28;20053;-86
2023/07/16 09:57:34;;;;;;;2.25;2.15;;;22.70;64.80;;;;;;5047558;28;20068;-86
2023/07/16 10:00:04;;;;;;;1.80;1.70;;;22.70;65.00;;;;;;5028129;28;20041;-86
2023/07/16 10:02:33;;;;;;;2.22;2.13;;;22.70;65.00;;;;;;5049398;28;20506;-87
2023/07/16 10:04:59;;;;;;;1.80;1.70;;;22.70;65.10;;;;;;5065824;28;20057;-87
2023/07/16 10:07:26;;;;;;;1.83;1.73;;;22.70;65.10;;;;;;5038854;28;20041;-86
2023/07/16 10:09:56;;;;;;;2.30;2.20;;;22.70;64.70;;;;;;5045016;28;20040;-86
2023/07/16 10:12:23;;;;;;;2.03;1.92;;;22.70;64.60;;;;;;5035827;28;20041;-86
2023/07/16 10:14:50;;;;;;;2.00;1.90;;;22.70;64.60;;;;;;5032140;28;20048;-87
2023/07/16 10:17:16;;;;;;;1.90;1.80;;;22.80;64.80;;;;;;5037078;28;20341;-86
2023/07/16 10:19:52;;;;;;;2.10;2.00;;;22.80;64.90;;;;;;5047732;28;20041;-87
2023/07/16 10:22:31;;;;;;;2.10;2.00;;;22.70;64.70;;;;;;5035409;28;20033;-86
2023/07/16 10:24:56;;;;;;;1.73;1.63;;;22.70;64.60;;;;;;5055687;28;20060;-87
2023/07/16 10:27:33;;;;;;;2.05;1.95;;;22.80;64.80;;;;;;5063164;28;20495;-86
2023/07/16 10:30:02;;;;;;;2.10;2.00;;;22.80;64.70;;;;;;5029811;28;20037;-86
2023/07/16 10:32:30;;;;;;;2.10;1.90;;;22.70;64.60;;;;;;5032943;28;20045;-87
2023/07/16 10:34:56;;;;;;;2.00;1.90;;;22.70;64.50;;;;;;5031976;28;20042;-86
2023/07/16 10:37:22;;;;;;;2.00;1.90;;;22.80;64.60;;;;;;5039276;28;20052;-86
2023/07/16 10:39:52;;;;;;;2.00;1.85;;;22.80;64.60;;;;;;5044161;28;20129;-86
2023/07/16 10:42:17;;;;;;;1.92;1.83;;;22.80;64.60;;;;;;5029108;28;20115;-87
2023/07/16 10:44:43;;;;;;;1.90;1.80;;;22.80;64.80;;;;;;5049098;28;20105;-86
2023/07/16 10:47:10;;;;;;;2.05;1.95;;;22.80;64.80;;;;;;5035518;28;20490;-86
2023/07/16 10:49:35;;;;;;;1.83;1.73;;;22.80;64.90;;;;;;5022915;28;20092;-87
2023/07/16 10:52:01;;;;;;;2.00;1.90;;;22.70;64.90;;;;;;5033102;28;20838;-87
2023/07/16 10:54:27;;;;;;;1.90;1.80;;;22.70;64.80;;;;;;5047973;28;20048;-87
2023/07/16 10:56:52;;;;;;;1.95;1.85;;;22.70;64.60;;;;;;5030723;28;20049;-87
2023/07/16 10:59:18;;;;;;;1.73;1.63;;;22.70;64.90;;;;;;5053941;28;20045;-86
2023/07/16 11:01:44;;;;;;;1.88;1.77;;;22.70;64.90;;;;;;5035570;28;20037;-86
2023/07/16 11:04:09;;;;;;;1.77;1.67;;;22.70;65.10;;;;;;5049006;28;20064;-87
2023/07/16 11:06:37;;;;;;;1.70;1.60;;;22.70;65.20;;;;;;5030155;28;20042;-86
2023/07/16 11:09:10;;;;;;;1.92;1.83;;;22.70;64.70;;;;;;5031812;28;20053;-86
2023/07/16 11:11:35;;;;;;;1.50;1.50;;;22.70;64.90;;;;;;5009355;28;20045;-87
2023/07/16 11:14:06;;;;;;;1.88;1.77;;;22.70;64.80;;;;;;5041751;28;20128;-87
2023/07/16 11:16:38;;;;;;;1.65;1.55;;;22.70;64.70;;;;;;5027820;28;20041;-87
2023/07/16 11:19:05;;;;;;;1.60;1.50;;;22.70;64.70;;;;;;5024764;28;20048;-86
2023/07/16 11:21:31;;;;;;;1.55;1.45;;;22.70;64.50;;;;;;5038869;28;20040;-87
2023/07/16 11:24:06;;;;;;;1.77;1.67;;;22.80;64.50;;;;;;5005845;28;20045;-87
2023/07/16 11:26:32;;;;;;;1.48;1.38;;;22.80;64.50;;;;;;5042099;28;20403;-87
2023/07/16 11:28:57;;;;;;;1.60;1.50;;;22.80;65.30;;;;;;5031006;28;20091;-87
2023/07/16 11:31:23;;;;;;;1.65;1.55;;;22.80;64.60;;;;;;5031019;28;20064;-86
2023/07/16 11:33:48;;;;;;;1.30;1.30;;;22.80;64.60;;;;;;5030445;28;20048;-85
2023/07/16 11:36:16;;;;;;;1.90;1.80;;;22.80;64.70;;;;;;5028968;28;20041;-86
2023/07/16 11:38:41;;;;;;;1.38;1.30;;;22.80;64.60;;;;;;5030762;28;20054;-82
2023/07/16 11:41:07;;;;;;;2.08;1.98;;;22.80;64.80;;;;;;5033694;28;20049;-86
2023/07/16 11:43:36;;;;;;;1.77;1.67;;;22.80;64.70;;;;;;5035552;28;20045;-85
2023/07/16 11:46:05;;;;;;;1.73;1.63;;;22.80;64.70;;;;;;5045447;28;20530;-86
2023/07/16 11:48:31;;;;;;;1.58;1.48;;;22.80;64.70;;;;;;5044166;28;20053;-86
2023/07/16 11:50:56;;;;;;;1.70;1.60;;;22.80;64.40;;;;;;5045708;28;20053;-86
2023/07/16 11:53:22;;;;;;;1.50;1.40;;;22.80;64.50;;;;;;5029150;28;20041;-86
2023/07/16 11:55:47;;;;;;;1.50;1.40;;;22.80;64.70;;;;;;5030082;28;20041;-85
2023/07/16 11:58:13;;;;;;;1.67;1.58;;;22.80;64.70;;;;;;5031462;28;20048;-86
2023/07/16 12:00:38;;;;;;;1.67;1.58;;;22.80;64.80;;;;;;5030019;28;20033;-86
2023/07/16 12:03:04;;;;;;;1.65;1.55;;;22.80;64.70;;;;;;4995595;28;20136;-85
2023/07/16 12:05:30;;;;;;;1.70;1.60;;;22.90;64.80;;;;;;5033252;28;20041;-86
2023/07/16 12:07:55;;;;;;;1.48;1.38;;;22.80;64.80;;;;;;5046498;28;20052;-86
2023/07/16 12:10:21;;;;;;;1.60;1.50;;;22.80;64.70;;;;;;5035232;28;20067;-86
2023/07/16 12:12:46;;;;;;;1.70;1.60;;;22.90;64.80;;;;;;5044735;28;20054;-86
2023/07/16 12:15:12;;;;;;;1.42;1.33;;;22.90;64.70;;;;;;5029763;28;20052;-86
2023/07/16 12:17:37;;;;;;;1.63;1.52;;;22.90;64.60;;;;;;5046632;28;20514;-86
2023/07/16 12:20:04;;;;;;;1.73;1.63;;;22.90;64.70;;;;;;5035868;28;20057;-85
2023/07/16 12:22:29;;;;;;;1.33;1.33;;;22.90;64.70;;;;;;5039023;28;20528;-86
2023/07/16 12:24:55;;;;;;;1.60;1.50;;;22.90;64.70;;;;;;5043544;28;20049;-86
2023/07/16 12:27:20;;;;;;;1.48;1.48;;;22.90;64.70;;;;;;5026952;28;20405;-85
2023/07/16 12:29:46;;;;;;;1.40;1.40;;;22.90;64.70;;;;;;5033634;28;20071;-85
2023/07/16 12:32:12;;;;;;;1.38;1.30;;;22.90;64.80;;;;;;5044056;28;20799;-86
2023/07/16 12:34:38;;;;;;;1.30;1.30;;;22.90;64.70;;;;;;5049902;28;20284;-86
2023/07/16 12:37:03;;;;;;;1.40;1.30;;;22.90;64.80;;;;;;5032578;28;20091;-86
2023/07/16 12:39:29;;;;;;;1.50;1.40;;;22.90;64.70;;;;;;5049032;28;20049;-86
2023/07/16 12:41:54;;;;;;;1.30;1.30;;;22.90;64.70;;;;;;5049300;28;20038;-86